createdAt,value
2023-04-25T00:01:42.937Z,12.10
2023-04-25T00:04:10.720Z,12.13
2023-04-25T00:06:38.110Z,12.43
2023-04-25T00:09:08.505Z,12.50
2023-04-25T00:11:35.873Z,13.00
2023-04-25T00:14:03.028Z,13.60
2023-04-25T00:16:34.269Z,13.03
2023-04-25T00:19:02.469Z,13.57
2023-04-25T00:21:29.636Z,13.57
2023-04-25T00:23:57.571Z,13.50
2023-04-25T00:26:24.789Z,13.67
2023-04-25T00:28:51.937Z,13.97
2023-04-25T00:31:19.284Z,14.17
2023-04-25T00:33:46.459Z,14.57
2023-04-25T00:36:13.666Z,14.10
2023-04-25T00:38:40.970Z,14.43
2023-04-25T00:41:09.219Z,15.20
2023-04-25T00:43:37.762Z,14.37
2023-04-25T00:46:05.287Z,15.57
2023-04-25T00:48:32.445Z,15.70
2023-04-25T00:51:00.249Z,15.50
2023-04-25T00:53:28.526Z,16.27
2023-04-25T00:55:56.322Z,18.10
2023-04-25T00:58:24.108Z,16.27
2023-04-25T01:00:53.098Z,17.43
2023-04-25T01:03:21.293Z,16.10
2023-04-25T01:05:49.140Z,17.33
2023-04-25T01:08:16.355Z,16.63
2023-04-25T01:10:43.649Z,17.37
2023-04-25T01:13:11.190Z,17.17
2023-04-25T01:15:38.368Z,16.40
2023-04-25T01:18:07.259Z,16.50
2023-04-25T01:20:35.102Z,17.00
2023-04-25T01:23:03.923Z,16.83
2023-04-25T01:25:32.112Z,17.50
2023-04-25T01:27:59.709Z,16.93
2023-04-25T01:30:30.581Z,17.07
2023-04-25T01:32:58.278Z,16.23
2023-04-25T01:35:25.995Z,15.53
2023-04-25T01:37:53.461Z,16.67
2023-04-25T01:40:22.190Z,15.40
2023-04-25T01:42:49.822Z,15.57
2023-04-25T01:45:17.110Z,15.60
2023-04-25T01:47:44.906Z,14.87
2023-04-25T01:50:12.395Z,14.50
2023-04-25T01:52:39.544Z,14.10
2023-04-25T01:55:07.111Z,14.60
2023-04-25T01:57:34.277Z,14.10
2023-04-25T02:00:02.572Z,14.80
2023-04-25T02:02:29.855Z,13.63
2023-04-25T02:04:57.190Z,13.93
2023-04-25T02:07:24.360Z,13.10
2023-04-25T02:09:51.658Z,12.87
2023-04-25T02:12:18.874Z,11.80
2023-04-25T02:14:46.173Z,12.83
2023-04-25T02:17:13.713Z,12.07
2023-04-25T02:19:41.003Z,12.70
2023-04-25T02:22:08.200Z,12.10
2023-04-25T02:24:35.810Z,12.33
2023-04-25T02:27:03.173Z,12.07
2023-04-25T02:29:30.966Z,12.13
2023-04-25T02:31:58.160Z,11.57
2023-04-25T02:34:25.365Z,11.97
2023-04-25T02:36:52.591Z,12.37
2023-04-25T02:39:19.841Z,11.83
2023-04-25T02:41:46.973Z,11.27
2023-04-25T02:44:14.186Z,12.27
2023-04-25T02:46:41.426Z,11.90
2023-04-25T02:49:08.764Z,12.30
2023-04-25T02:51:35.931Z,13.40
2023-04-25T02:54:03.151Z,12.87
2023-04-25T02:56:30.423Z,11.63
2023-04-25T02:58:57.601Z,13.77
2023-04-25T03:01:24.984Z,13.00
2023-04-25T03:03:52.505Z,13.40
2023-04-25T03:06:19.820Z,12.60
2023-04-25T03:08:46.965Z,11.97
2023-04-25T03:11:14.222Z,12.20
2023-04-25T03:13:41.407Z,12.03
2023-04-25T03:16:08.578Z,11.60
2023-04-25T03:18:35.835Z,10.63
2023-04-25T03:21:03.033Z,10.67
2023-04-25T03:23:30.291Z,10.83
2023-04-25T03:25:57.452Z,10.60
2023-04-25T03:28:24.663Z,10.17
2023-04-25T03:30:51.792Z,10.80
2023-04-25T03:33:18.931Z,11.30
2023-04-25T03:35:46.478Z,11.27
2023-04-25T03:38:13.640Z,11.40
2023-04-25T03:40:40.779Z,11.27
2023-04-25T03:43:08.168Z,11.83
2023-04-25T03:45:35.360Z,13.20
2023-04-25T03:48:02.668Z,13.90
2023-04-25T03:50:29.855Z,13.17
2023-04-25T03:52:56.989Z,14.40
2023-04-25T03:55:24.118Z,13.13
2023-04-25T03:57:51.238Z,14.00
2023-04-25T04:00:18.425Z,14.27
2023-04-25T04:02:45.902Z,13.53
2023-04-25T04:05:13.869Z,13.80
2023-04-25T04:07:43.531Z,15.10
2023-04-25T04:10:11.637Z,15.60
2023-04-25T04:12:38.876Z,15.23
2023-04-25T04:15:06.800Z,14.13
2023-04-25T04:17:34.049Z,12.40
2023-04-25T04:20:01.354Z,12.77
2023-04-25T04:22:28.551Z,11.03
2023-04-25T04:24:55.696Z,10.30
2023-04-25T04:27:23.578Z,10.27
2023-04-25T04:29:52.495Z,10.53
2023-04-25T04:32:19.646Z,10.87
2023-04-25T04:34:48.317Z,11.07
2023-04-25T04:37:15.796Z,10.73
2023-04-25T04:39:42.935Z,10.47
2023-04-25T04:42:10.099Z,10.03
2023-04-25T04:44:37.699Z,9.50
2023-04-25T04:47:07.227Z,9.43
2023-04-25T04:49:34.645Z,9.77
2023-04-25T04:52:01.860Z,8.50
2023-04-25T04:54:29.056Z,8.57
2023-04-25T04:56:56.220Z,7.67
2023-04-25T04:59:23.568Z,8.13
2023-04-25T05:01:50.994Z,7.27
2023-04-25T05:04:18.229Z,7.27
2023-04-25T05:06:48.164Z,6.67
2023-04-25T05:09:16.242Z,7.17
2023-04-25T05:11:43.396Z,6.17
2023-04-25T05:14:10.662Z,5.63
2023-04-25T05:16:37.886Z,5.90
2023-04-25T05:19:05.032Z,5.40
2023-04-25T05:21:32.463Z,4.60
2023-04-25T05:23:59.689Z,5.10
2023-04-25T05:26:26.901Z,4.80
2023-04-25T05:28:54.076Z,4.90
2023-04-25T05:31:21.291Z,4.70
2023-04-25T05:33:48.657Z,4.53
2023-04-25T05:36:15.969Z,4.63
2023-04-25T05:38:43.964Z,4.80
2023-04-25T05:41:11.118Z,4.90
2023-04-25T05:43:38.364Z,4.20
2023-04-25T05:46:05.652Z,4.37
2023-04-25T05:48:32.906Z,4.30
2023-04-25T05:51:00.029Z,4.47
2023-04-25T05:53:27.154Z,4.27
2023-04-25T05:55:54.380Z,4.20
2023-04-25T05:58:21.555Z,4.20
2023-04-25T06:00:48.726Z,4.00
2023-04-25T06:03:19.563Z,3.70
2023-04-25T06:05:47.808Z,3.80
2023-04-25T06:08:15.022Z,3.80
2023-04-25T06:10:42.216Z,3.70
2023-04-25T06:13:09.349Z,3.60
2023-04-25T06:15:36.517Z,3.80
2023-04-25T06:18:03.749Z,3.50
2023-04-25T06:20:31.142Z,3.90
2023-04-25T06:22:58.295Z,4.70
2023-04-25T06:25:25.421Z,4.63
2023-04-25T06:27:52.593Z,4.20
2023-04-25T06:30:23.435Z,3.20
2023-04-25T06:32:50.829Z,3.40
2023-04-25T06:35:18.049Z,3.50
2023-04-25T06:37:45.490Z,3.60
2023-04-25T06:40:12.677Z,3.70
2023-04-25T06:42:39.798Z,2.60
2023-04-25T06:45:07.269Z,3.10
2023-04-25T06:47:34.419Z,3.30
2023-04-25T06:50:01.589Z,3.03
2023-04-25T06:52:28.748Z,2.63
2023-04-25T06:54:55.900Z,2.70
2023-04-25T06:57:23.122Z,2.17
2023-04-25T06:59:50.236Z,2.23
2023-04-25T07:02:17.463Z,1.80
2023-04-25T07:04:46.242Z,2.20
2023-04-25T07:07:13.436Z,2.27
2023-04-25T07:09:40.765Z,1.90
2023-04-25T07:12:08.030Z,2.10
2023-04-25T07:14:35.309Z,1.83
2023-04-25T07:17:02.677Z,2.00
2023-04-25T07:19:30.770Z,1.63
2023-04-25T07:21:58.032Z,1.67
2023-04-25T07:24:25.213Z,1.40
2023-04-25T07:26:52.374Z,1.30
2023-04-25T07:29:19.540Z,1.40
2023-04-25T07:31:46.713Z,1.47
2023-04-25T07:34:13.932Z,1.23
2023-04-25T07:36:41.181Z,1.50
2023-04-25T07:39:10.107Z,1.50
2023-04-25T07:41:37.276Z,1.63
2023-04-25T07:44:04.621Z,1.40
2023-04-25T07:46:31.901Z,1.70
2023-04-25T07:48:59.099Z,1.77
2023-04-25T07:51:26.903Z,1.57
2023-04-25T07:53:54.142Z,1.30
2023-04-25T07:56:21.439Z,1.40
2023-04-25T07:58:48.655Z,1.10
2023-04-25T08:01:15.893Z,1.00
2023-04-25T08:03:43.258Z,1.10
2023-04-25T08:06:11.072Z,1.30
2023-04-25T08:08:38.546Z,1.30
2023-04-25T08:11:05.754Z,1.40
2023-04-25T08:13:32.962Z,1.27
2023-04-25T08:16:00.243Z,1.13
2023-04-25T08:18:27.583Z,1.20
2023-04-25T08:20:54.778Z,1.20
2023-04-25T08:23:21.963Z,1.03
2023-04-25T08:25:49.103Z,0.90
2023-04-25T08:28:16.287Z,1.30
2023-04-25T08:30:43.451Z,1.20
2023-04-25T08:33:11.343Z,1.10
2023-04-25T08:35:38.612Z,1.10
2023-04-25T08:38:05.859Z,1.23
2023-04-25T08:40:34.847Z,1.20
2023-04-25T08:43:02.213Z,1.00
2023-04-25T08:45:29.608Z,1.00
2023-04-25T08:47:58.000Z,1.00
2023-04-25T08:50:27.221Z,1.13
2023-04-25T08:52:55.435Z,1.30
2023-04-25T08:55:23.890Z,1.20
2023-04-25T08:57:51.413Z,1.40
2023-04-25T09:00:18.973Z,0.90
2023-04-25T09:02:46.993Z,1.20
2023-04-25T09:05:14.605Z,1.20
2023-04-25T09:07:41.907Z,1.07
2023-04-25T09:10:09.289Z,0.80
2023-04-25T09:12:37.949Z,1.10
2023-04-25T09:15:06.857Z,1.00
2023-04-25T09:17:34.091Z,1.30
2023-04-25T09:20:11.544Z,0.90
2023-04-25T09:22:39.177Z,0.70
2023-04-25T09:25:10.642Z,1.10
2023-04-25T09:27:37.880Z,0.90
2023-04-25T09:30:05.773Z,1.07
2023-04-25T09:32:33.184Z,1.00
2023-04-25T09:35:00.551Z,1.00
2023-04-25T09:37:31.433Z,1.20
2023-04-25T09:40:01.326Z,1.00
2023-04-25T09:42:30.046Z,0.90
2023-04-25T09:44:58.079Z,0.77
2023-04-25T09:47:26.184Z,0.90
2023-04-25T09:49:53.936Z,1.00
2023-04-25T09:52:26.111Z,1.10
2023-04-25T09:54:53.799Z,0.90
2023-04-25T09:57:22.000Z,1.00
2023-04-25T09:59:50.527Z,0.80
2023-04-25T10:02:20.575Z,0.90
2023-04-25T10:04:53.573Z,1.20
2023-04-25T10:07:22.352Z,1.07
2023-04-25T10:09:53.658Z,1.27
2023-04-25T10:12:21.021Z,1.10
2023-04-25T10:14:48.409Z,1.10
2023-04-25T10:17:16.339Z,0.80
2023-04-25T10:19:43.866Z,0.90
2023-04-25T10:22:29.832Z,1.03
2023-04-25T10:24:57.667Z,0.90
2023-04-25T10:27:24.982Z,1.20
2023-04-25T10:30:03.520Z,0.73
2023-04-25T10:32:32.485Z,0.90
2023-04-25T10:34:59.694Z,0.90
2023-04-25T10:37:26.860Z,1.10
2023-04-25T10:39:55.375Z,1.00
2023-04-25T10:42:22.534Z,1.63
2023-04-25T10:45:03.899Z,1.40
2023-04-25T10:47:38.156Z,1.10
2023-04-25T10:50:10.065Z,1.07
2023-04-25T10:52:40.849Z,1.10
2023-04-25T10:55:08.519Z,1.20
2023-04-25T10:57:43.003Z,1.00
2023-04-25T11:00:17.886Z,1.20
2023-04-25T11:02:46.934Z,1.37
2023-04-25T11:05:22.763Z,1.20
2023-04-25T11:08:06.596Z,1.00
2023-04-25T11:10:36.705Z,1.10
2023-04-25T11:13:04.090Z,1.37
2023-04-25T11:15:31.314Z,1.50
2023-04-25T11:17:58.473Z,1.13
2023-04-25T11:20:29.128Z,0.90
2023-04-25T11:22:59.504Z,1.07
2023-04-25T11:25:27.305Z,0.87
2023-04-25T11:27:55.725Z,1.10
2023-04-25T11:30:23.705Z,1.20
2023-04-25T11:32:51.279Z,1.20
2023-04-25T11:35:18.725Z,1.10
2023-04-25T11:37:46.240Z,1.30
2023-04-25T11:40:13.705Z,1.20
2023-04-25T11:42:41.494Z,1.27
2023-04-25T11:45:08.918Z,1.27
2023-04-25T11:47:36.291Z,1.50
2023-04-25T11:50:04.639Z,1.10
2023-04-25T11:52:37.743Z,1.30
2023-04-25T11:55:12.162Z,1.30
2023-04-25T11:57:39.765Z,1.20
2023-04-25T12:00:27.460Z,1.57
2023-04-25T12:02:55.697Z,1.00
2023-04-25T12:05:32.789Z,1.33
2023-04-25T12:08:14.663Z,1.30
2023-04-25T12:10:42.547Z,1.13
2023-04-25T12:13:25.324Z,1.30
2023-04-25T12:15:52.852Z,1.27
2023-04-25T12:18:25.060Z,1.23
2023-04-25T12:20:53.988Z,1.00
2023-04-25T12:23:28.185Z,1.40
2023-04-25T12:25:55.410Z,1.10
2023-04-25T12:28:24.933Z,1.17
2023-04-25T12:30:56.167Z,1.27
2023-04-25T12:33:27.929Z,1.20
2023-04-25T12:35:55.792Z,1.47
2023-04-25T12:38:28.848Z,1.50
2023-04-25T12:40:56.299Z,1.10
2023-04-25T12:43:23.699Z,1.27
2023-04-25T12:45:51.947Z,1.10
2023-04-25T12:48:19.494Z,1.40
2023-04-25T12:50:49.887Z,1.30
2023-04-25T12:53:23.955Z,1.40
2023-04-25T12:55:51.613Z,1.30
2023-04-25T12:58:19.435Z,1.10
2023-04-25T13:00:47.285Z,1.10
2023-04-25T13:03:14.661Z,1.37
2023-04-25T13:05:42.322Z,1.30
2023-04-25T13:08:09.709Z,1.20
2023-04-25T13:10:37.258Z,1.20
2023-04-25T13:13:04.492Z,1.27
2023-04-25T13:15:31.728Z,1.20
2023-04-25T13:17:58.897Z,1.20
2023-04-25T13:20:26.160Z,1.13
2023-04-25T13:22:53.418Z,1.30
2023-04-25T13:25:20.706Z,0.93
2023-04-25T13:27:47.876Z,1.10
2023-04-25T13:30:15.928Z,1.50
2023-04-25T13:32:43.117Z,1.20
2023-04-25T13:35:11.505Z,1.50
2023-04-25T13:37:39.226Z,1.30
2023-04-25T13:40:10.429Z,1.30
2023-04-25T13:42:38.343Z,1.37
2023-04-25T13:45:06.385Z,1.30
2023-04-25T13:47:33.604Z,1.30
2023-04-25T13:50:01.234Z,1.30
2023-04-25T13:52:28.433Z,1.30
2023-04-25T13:54:55.725Z,1.20
2023-04-25T13:57:22.887Z,1.30
2023-04-25T13:59:50.141Z,1.20
2023-04-25T14:02:17.399Z,1.40
2023-04-25T14:04:44.580Z,1.40
2023-04-25T14:07:12.134Z,1.50
2023-04-25T14:09:39.287Z,1.37
2023-04-25T14:12:07.051Z,1.30
2023-04-25T14:14:34.248Z,1.23
2023-04-25T14:17:01.456Z,1.17
2023-04-25T14:19:29.697Z,1.30
2023-04-25T14:21:57.220Z,1.00
2023-04-25T14:24:24.392Z,1.23
2023-04-25T14:26:51.661Z,1.40
2023-04-25T14:29:18.855Z,1.40
2023-04-25T14:31:46.343Z,1.30
2023-04-25T14:34:13.615Z,1.07
2023-04-25T14:36:40.882Z,1.40
2023-04-25T14:39:08.023Z,1.33
2023-04-25T14:41:35.382Z,1.20
2023-04-25T14:44:02.518Z,1.23
2023-04-25T14:46:29.806Z,1.43
2023-04-25T14:48:57.387Z,1.40
2023-04-25T14:51:25.022Z,1.33
2023-04-25T14:53:52.681Z,1.10
2023-04-25T14:56:20.421Z,1.20
2023-04-25T14:58:47.639Z,1.40
2023-04-25T15:01:15.467Z,1.13
2023-04-25T15:03:43.000Z,0.93
2023-04-25T15:06:10.480Z,1.00
2023-04-25T15:08:37.629Z,1.20
2023-04-25T15:11:04.814Z,1.30
2023-04-25T15:13:32.114Z,1.10
2023-04-25T15:15:59.439Z,1.20
2023-04-25T15:18:26.763Z,1.10
2023-04-25T15:20:54.629Z,1.13
2023-04-25T15:23:22.423Z,1.20
2023-04-25T15:25:52.106Z,1.00
2023-04-25T15:28:19.809Z,1.00
2023-04-25T15:30:47.142Z,1.50
2023-04-25T15:33:14.566Z,0.90
2023-04-25T15:35:41.836Z,1.10
2023-04-25T15:38:11.518Z,1.07
2023-04-25T15:40:38.746Z,1.17
2023-04-25T15:43:06.225Z,1.27
2023-04-25T15:45:34.529Z,1.17
2023-04-25T15:48:02.391Z,1.00
2023-04-25T15:50:29.637Z,1.17
2023-04-25T15:52:57.926Z,1.03
2023-04-25T15:55:26.993Z,1.33
2023-04-25T15:57:54.282Z,1.30
2023-04-25T16:00:22.531Z,1.10
2023-04-25T16:02:50.116Z,1.10
2023-04-25T16:05:18.118Z,1.10
2023-04-25T16:07:46.732Z,1.17
2023-04-25T16:10:14.345Z,1.20
2023-04-25T16:12:41.513Z,1.07
2023-04-25T16:15:08.877Z,1.10
2023-04-25T16:17:36.154Z,1.30
2023-04-25T16:20:09.785Z,1.00
2023-04-25T16:22:37.574Z,1.10
2023-04-25T16:25:05.674Z,0.97
2023-04-25T16:27:34.685Z,1.07
2023-04-25T16:30:02.198Z,1.20
2023-04-25T16:32:29.390Z,1.37
2023-04-25T16:34:58.661Z,1.17
2023-04-25T16:37:26.478Z,1.00
2023-04-25T16:39:53.689Z,1.10
2023-04-25T16:42:20.863Z,0.80
2023-04-25T16:44:48.025Z,0.90
2023-04-25T16:47:19.537Z,0.80
2023-04-25T16:49:47.554Z,1.37
2023-04-25T16:52:16.059Z,0.70
2023-04-25T16:54:43.354Z,0.83
2023-04-25T16:57:11.262Z,1.00
2023-04-25T16:59:39.223Z,0.90
2023-04-25T17:02:08.309Z,1.00
2023-04-25T17:04:35.854Z,0.80
2023-04-25T17:07:03.228Z,0.97
2023-04-25T17:09:30.551Z,0.80
2023-04-25T17:11:57.868Z,0.60
2023-04-25T17:14:25.150Z,0.60
2023-04-25T17:16:52.313Z,0.90
2023-04-25T17:19:19.453Z,0.80
2023-04-25T17:21:46.734Z,1.20
2023-04-25T17:24:15.749Z,1.00
2023-04-25T17:26:43.299Z,1.10
2023-04-25T17:29:10.637Z,0.70
2023-04-25T17:31:38.533Z,1.07
2023-04-25T17:34:06.080Z,0.60
2023-04-25T17:36:33.250Z,0.67
2023-04-25T17:39:00.368Z,0.70
2023-04-25T17:41:27.587Z,0.60
2023-04-25T17:43:54.722Z,0.80
2023-04-25T17:46:21.930Z,0.80
2023-04-25T17:48:50.206Z,0.80
2023-04-25T17:51:17.597Z,0.63
2023-04-25T17:53:44.735Z,0.53
2023-04-25T17:56:19.825Z,0.73
2023-04-25T17:58:53.770Z,0.80
2023-04-25T18:01:21.330Z,0.83
2023-04-25T18:03:49.953Z,0.70
2023-04-25T18:06:18.474Z,0.90
2023-04-25T18:08:45.908Z,0.77
2023-04-25T18:11:13.190Z,0.63
2023-04-25T18:13:41.062Z,0.80
2023-04-25T18:16:08.851Z,0.90
2023-04-25T18:18:36.827Z,0.93
2023-04-25T18:21:06.880Z,0.80
2023-04-25T18:23:34.335Z,0.73
2023-04-25T18:26:02.308Z,0.73
2023-04-25T18:28:29.663Z,1.00
2023-04-25T18:30:57.152Z,0.90
2023-04-25T18:33:24.304Z,0.63
2023-04-25T18:38:34.816Z,0.90
2023-04-25T18:41:26.945Z,0.70
2023-04-25T18:44:01.201Z,0.67
2023-04-25T18:46:28.544Z,0.90
2023-04-25T18:48:55.879Z,0.80
2023-04-25T18:51:23.802Z,1.20
2023-04-25T18:53:52.063Z,0.70
2023-04-25T18:56:22.644Z,0.60
2023-04-25T18:58:53.585Z,0.80
2023-04-25T19:01:21.612Z,0.90
2023-04-25T19:03:55.760Z,0.80
2023-04-25T19:06:24.528Z,1.23
2023-04-25T19:08:52.799Z,0.80
2023-04-25T19:11:21.449Z,0.90
2023-04-25T19:13:52.196Z,0.83
2023-04-25T19:16:19.719Z,0.83
2023-04-25T19:18:47.059Z,0.63
2023-04-25T19:21:14.250Z,0.88
2023-04-25T19:23:41.686Z,1.00
2023-04-25T19:26:08.912Z,0.60
2023-04-25T19:28:36.118Z,1.00
2023-04-25T19:31:03.416Z,0.90
2023-04-25T19:33:30.707Z,0.93
2023-04-25T19:35:57.883Z,1.00
2023-04-25T19:38:25.019Z,0.77
2023-04-25T19:40:52.164Z,0.83
2023-04-25T19:43:19.370Z,0.90
2023-04-25T19:45:46.591Z,0.80
2023-04-25T19:48:14.156Z,0.83
2023-04-25T19:50:41.868Z,0.70
2023-04-25T19:53:09.614Z,0.90
2023-04-25T19:55:36.946Z,0.70
2023-04-25T19:58:04.285Z,0.90
2023-04-25T20:00:31.577Z,0.77
2023-04-25T20:02:58.885Z,0.77
2023-04-25T20:05:27.050Z,0.67
2023-04-25T20:07:54.312Z,1.03
2023-04-25T20:10:21.484Z,0.80
2023-04-25T20:12:49.324Z,0.70
2023-04-25T20:15:17.962Z,0.97
2023-04-25T20:17:45.354Z,0.90
2023-04-25T20:20:12.746Z,0.93
2023-04-25T20:22:40.710Z,0.80
2023-04-25T20:25:09.126Z,0.70
2023-04-25T20:27:37.982Z,1.00
2023-04-25T20:30:07.975Z,1.00
2023-04-25T20:32:35.890Z,1.00
2023-04-25T20:35:04.065Z,0.90
2023-04-25T20:37:34.539Z,0.97
2023-04-25T20:40:02.503Z,0.67
2023-04-25T20:42:29.846Z,1.00
2023-04-25T20:44:57.097Z,0.73
2023-04-25T20:47:24.315Z,0.80
2023-04-25T20:49:52.254Z,0.83
2023-04-25T20:52:19.435Z,0.87
2023-04-25T20:54:50.686Z,0.80
2023-04-25T20:57:18.012Z,0.80
2023-04-25T20:59:45.164Z,0.83
2023-04-25T21:02:15.541Z,0.73
2023-04-25T21:04:46.473Z,0.80
2023-04-25T21:07:14.104Z,1.00
2023-04-25T21:09:42.760Z,0.80
2023-04-25T21:12:09.921Z,0.90
2023-04-25T21:14:37.148Z,1.10
2023-04-25T21:17:04.625Z,0.87
2023-04-25T21:19:31.971Z,0.80
2023-04-25T21:21:59.294Z,1.17
2023-04-25T21:24:27.301Z,1.00
2023-04-25T21:26:54.528Z,1.00
2023-04-25T21:29:21.752Z,0.80
2023-04-25T21:31:48.964Z,1.83
2023-04-25T21:34:16.690Z,1.00
2023-04-25T21:36:44.388Z,1.10
2023-04-25T21:39:12.431Z,1.10
2023-04-25T21:41:40.270Z,1.23
2023-04-25T21:44:07.500Z,1.10
2023-04-25T21:46:34.737Z,1.27
2023-04-25T21:49:01.881Z,1.13
2023-04-25T21:51:29.373Z,1.07
2023-04-25T21:53:56.524Z,1.10
2023-04-25T21:56:23.733Z,1.10
2023-04-25T21:58:51.063Z,1.20
2023-04-25T22:01:18.467Z,1.20
2023-04-25T22:03:45.899Z,1.40
2023-04-25T22:06:13.146Z,1.27
2023-04-25T22:08:40.292Z,1.17
2023-04-25T22:11:08.399Z,1.10
2023-04-25T22:13:35.795Z,1.00
2023-04-25T22:16:03.084Z,1.10
2023-04-25T22:18:30.448Z,1.10
2023-04-25T22:20:57.751Z,1.30
2023-04-25T22:23:25.543Z,1.27
2023-04-25T22:25:52.696Z,1.00
2023-04-25T22:28:20.354Z,1.37
2023-04-25T22:30:47.513Z,1.37
2023-04-25T22:33:14.703Z,1.20
2023-04-25T22:35:42.209Z,1.13
2023-04-25T22:38:09.586Z,1.20
2023-04-25T22:40:36.808Z,1.10
2023-04-25T22:43:03.958Z,1.37
2023-04-25T22:45:31.876Z,1.20
2023-04-25T22:47:59.497Z,1.20
2023-04-25T22:50:27.040Z,1.40
2023-04-25T22:52:55.049Z,1.10
2023-04-25T22:55:22.580Z,1.20
2023-04-25T22:57:49.725Z,1.27
2023-04-25T23:00:19.192Z,1.50
2023-04-25T23:02:47.175Z,1.20
2023-04-25T23:05:15.353Z,1.20
2023-04-25T23:07:43.666Z,1.20
2023-04-25T23:10:10.949Z,1.40
2023-04-25T23:12:38.770Z,1.40
2023-04-25T23:15:06.236Z,1.30
2023-04-25T23:17:33.362Z,1.23
2023-04-25T23:20:07.404Z,1.50
2023-04-25T23:22:34.702Z,1.50
2023-04-25T23:25:01.983Z,1.40
2023-04-25T23:27:29.202Z,1.50
2023-04-25T23:29:56.970Z,1.47
2023-04-25T23:32:26.102Z,1.77
2023-04-25T23:34:53.454Z,1.70
2023-04-25T23:37:20.663Z,1.60
2023-04-25T23:39:49.352Z,1.70
2023-04-25T23:42:16.842Z,1.50
2023-04-25T23:44:44.378Z,1.50
2023-04-25T23:47:13.694Z,1.50
2023-04-25T23:49:41.257Z,1.63
2023-04-25T23:52:08.594Z,1.47
2023-04-25T23:54:35.952Z,1.40
2023-04-25T23:57:06.226Z,1.60
2023-04-25T23:59:33.431Z,1.50
